Pamelia Four Corners, New York
Current Conditions -  °F | °C
As of 2:58 AM on Saturday 29 Nov 2014 (Local Time) from KGTB Reporting Station
Overcast Overcast  
Wind Chill: 13°   Ceiling: 3500
Heat Index: 21°   Visibility: 10mi
Dew Point: 15°   Wind: 6mph
Humidity: 78%   Direction: 180°S
Pressure: 30.2"   Gusts: NA
Location:  44.0981°N, 75.8331°W
Report Text: KGTB 290758Z AUTO 18005KT 10SM OVC035 M06/M09 A3020 RMK AO2 CIG 025 RWY03 SLP238 T10611093
Loading
Personal Weather Stations






























Interactive Weather Map New forecast layout! Learn more

10-Day Weather Forecast

Advertisements
Track Severe Weather on mobile